sensor_id;sensor_type;location;lat;lon;timestamp;P1;durP1;ratioP1;P2;durP2;ratioP2
17574;SDS011;8906;43.590;1.418;2023-09-18T00:00:24;7.18;;;2.75;;
17574;SDS011;8906;43.590;1.418;2023-09-18T00:02:51;2.78;;;1.63;;
17574;SDS011;8906;43.590;1.418;2023-09-18T00:05:18;4.72;;;2.45;;
17574;SDS011;8906;43.590;1.418;2023-09-18T00:07:45;4.07;;;1.90;;
17574;SDS011;8906;43.590;1.418;2023-09-18T00:10:12;3.67;;;2.20;;
17574;SDS011;8906;43.590;1.418;2023-09-18T00:12:39;4.90;;;2.67;;
17574;SDS011;8906;43.590;1.418;2023-09-18T00:15:07;2.15;;;2.03;;
17574;SDS011;8906;43.590;1.418;2023-09-18T00:17:35;3.00;;;2.28;;
17574;SDS011;8906;43.590;1.418;2023-09-18T00:20:03;3.10;;;2.22;;
17574;SDS011;8906;43.590;1.418;2023-09-18T00:22:31;4.63;;;2.45;;
17574;SDS011;8906;43.590;1.418;2023-09-18T00:24:59;5.63;;;2.58;;
17574;SDS011;8906;43.590;1.418;2023-09-18T00:27:26;4.68;;;2.60;;
17574;SDS011;8906;43.590;1.418;2023-09-18T00:29:53;4.20;;;2.53;;
17574;SDS011;8906;43.590;1.418;2023-09-18T00:32:20;5.97;;;3.22;;
17574;SDS011;8906;43.590;1.418;2023-09-18T00:34:48;3.22;;;2.70;;
17574;SDS011;8906;43.590;1.418;2023-09-18T00:37:15;4.07;;;2.50;;
17574;SDS011;8906;43.590;1.418;2023-09-18T00:39:42;7.95;;;3.33;;
17574;SDS011;8906;43.590;1.418;2023-09-18T00:42:09;4.40;;;2.38;;
17574;SDS011;8906;43.590;1.418;2023-09-18T00:44:38;5.55;;;2.70;;
17574;SDS011;8906;43.590;1.418;2023-09-18T00:47:06;6.57;;;2.78;;
17574;SDS011;8906;43.590;1.418;2023-09-18T00:49:34;6.93;;;3.10;;
17574;SDS011;8906;43.590;1.418;2023-09-18T00:52:04;4.20;;;3.28;;
17574;SDS011;8906;43.590;1.418;2023-09-18T00:54:32;4.68;;;3.03;;
17574;SDS011;8906;43.590;1.418;2023-09-18T00:57:00;3.20;;;2.58;;
17574;SDS011;8906;43.590;1.418;2023-09-18T00:59:28;3.70;;;3.38;;
17574;SDS011;8906;43.590;1.418;2023-09-18T01:01:56;3.90;;;2.83;;
17574;SDS011;8906;43.590;1.418;2023-09-18T01:04:23;3.75;;;2.65;;
17574;SDS011;8906;43.590;1.418;2023-09-18T01:06:53;4.13;;;2.63;;
17574;SDS011;8906;43.590;1.418;2023-09-18T01:09:23;6.35;;;3.38;;
17574;SDS011;8906;43.590;1.418;2023-09-18T01:11:52;3.08;;;2.83;;
17574;SDS011;8906;43.590;1.418;2023-09-18T01:14:25;3.85;;;2.60;;
17574;SDS011;8906;43.590;1.418;2023-09-18T01:16:58;5.15;;;3.45;;
17574;SDS011;8906;43.590;1.418;2023-09-18T01:19:36;4.40;;;2.92;;
17574;SDS011;8906;43.590;1.418;2023-09-18T01:22:04;5.15;;;3.20;;
17574;SDS011;8906;43.590;1.418;2023-09-18T01:24:33;4.50;;;2.38;;
17574;SDS011;8906;43.590;1.418;2023-09-18T01:27:01;3.35;;;2.58;;
17574;SDS011;8906;43.590;1.418;2023-09-18T01:29:29;3.22;;;2.40;;
17574;SDS011;8906;43.590;1.418;2023-09-18T01:31:56;10.85;;;4.05;;
17574;SDS011;8906;43.590;1.418;2023-09-18T01:34:25;3.47;;;2.72;;
17574;SDS011;8906;43.590;1.418;2023-09-18T01:36:55;6.38;;;2.58;;
17574;SDS011;8906;43.590;1.418;2023-09-18T01:39:22;4.85;;;2.55;;
17574;SDS011;8906;43.590;1.418;2023-09-18T01:41:53;3.95;;;2.63;;
17574;SDS011;8906;43.590;1.418;2023-09-18T01:44:21;6.32;;;3.10;;
17574;SDS011;8906;43.590;1.418;2023-09-18T01:46:47;4.55;;;2.78;;
17574;SDS011;8906;43.590;1.418;2023-09-18T01:49:16;3.40;;;2.33;;
17574;SDS011;8906;43.590;1.418;2023-09-18T01:51:52;3.67;;;3.10;;
17574;SDS011;8906;43.590;1.418;2023-09-18T01:54:19;4.43;;;2.80;;
17574;SDS011;8906;43.590;1.418;2023-09-18T01:56:46;4.47;;;3.45;;
17574;SDS011;8906;43.590;1.418;2023-09-18T01:59:14;6.18;;;2.65;;
17574;SDS011;8906;43.590;1.418;2023-09-18T02:01:41;3.88;;;2.78;;
17574;SDS011;8906;43.590;1.418;2023-09-18T02:04:07;6.65;;;3.38;;
17574;SDS011;8906;43.590;1.418;2023-09-18T02:06:35;6.40;;;3.03;;
17574;SDS011;8906;43.590;1.418;2023-09-18T02:09:02;6.88;;;3.05;;
17574;SDS011;8906;43.590;1.418;2023-09-18T02:11:29;5.80;;;3.10;;
17574;SDS011;8906;43.590;1.418;2023-09-18T02:13:56;4.57;;;3.00;;
17574;SDS011;8906;43.590;1.418;2023-09-18T02:16:24;5.50;;;3.33;;
17574;SDS011;8906;43.590;1.418;2023-09-18T02:18:54;10.00;;;3.60;;
17574;SDS011;8906;43.590;1.418;2023-09-18T02:21:20;4.88;;;3.03;;
17574;SDS011;8906;43.590;1.418;2023-09-18T02:23:48;7.10;;;2.92;;
17574;SDS011;8906;43.590;1.418;2023-09-18T02:26:16;3.28;;;2.42;;
17574;SDS011;8906;43.590;1.418;2023-09-18T02:28:43;3.78;;;3.03;;
17574;SDS011;8906;43.590;1.418;2023-09-18T02:31:10;5.25;;;3.40;;
17574;SDS011;8906;43.590;1.418;2023-09-18T02:33:38;3.15;;;2.55;;
17574;SDS011;8906;43.590;1.418;2023-09-18T02:36:06;3.28;;;2.97;;
17574;SDS011;8906;43.590;1.418;2023-09-18T02:38:33;4.22;;;3.55;;
17574;SDS011;8906;43.590;1.418;2023-09-18T02:41:00;6.45;;;2.75;;
17574;SDS011;8906;43.590;1.418;2023-09-18T02:43:27;4.63;;;2.38;;
17574;SDS011;8906;43.590;1.418;2023-09-18T02:45:54;4.13;;;2.60;;
17574;SDS011;8906;43.590;1.418;2023-09-18T02:48:21;6.70;;;4.05;;
17574;SDS011;8906;43.590;1.418;2023-09-18T02:50:49;3.70;;;2.92;;
17574;SDS011;8906;43.590;1.418;2023-09-18T02:53:17;5.25;;;3.45;;
17574;SDS011;8906;43.590;1.418;2023-09-18T02:55:45;4.47;;;3.17;;
17574;SDS011;8906;43.590;1.418;2023-09-18T02:58:11;3.13;;;2.80;;
17574;SDS011;8906;43.590;1.418;2023-09-18T03:00:40;5.22;;;3.70;;
17574;SDS011;8906;43.590;1.418;2023-09-18T03:03:08;4.90;;;3.25;;
17574;SDS011;8906;43.590;1.418;2023-09-18T03:05:35;5.47;;;3.00;;
17574;SDS011;8906;43.590;1.418;2023-09-18T03:08:04;2.72;;;2.53;;
17574;SDS011;8906;43.590;1.418;2023-09-18T03:10:32;3.00;;;2.63;;
17574;SDS011;8906;43.590;1.418;2023-09-18T03:13:00;3.50;;;3.20;;
17574;SDS011;8906;43.590;1.418;2023-09-18T03:15:27;7.78;;;5.38;;
17574;SDS011;8906;43.590;1.418;2023-09-18T03:17:54;10.25;;;8.10;;
17574;SDS011;8906;43.590;1.418;2023-09-18T03:20:22;17.38;;;15.63;;
17574;SDS011;8906;43.590;1.418;2023-09-18T03:22:50;19.48;;;17.48;;
17574;SDS011;8906;43.590;1.418;2023-09-18T03:25:18;17.40;;;15.45;;
17574;SDS011;8906;43.590;1.418;2023-09-18T03:27:45;15.30;;;13.88;;
17574;SDS011;8906;43.590;1.418;2023-09-18T03:30:12;11.07;;;9.77;;
17574;SDS011;8906;43.590;1.418;2023-09-18T03:32:40;14.85;;;10.55;;
17574;SDS011;8906;43.590;1.418;2023-09-18T03:35:07;10.93;;;7.10;;
17574;SDS011;8906;43.590;1.418;2023-09-18T03:37:40;9.90;;;7.22;;
17574;SDS011;8906;43.590;1.418;2023-09-18T03:40:08;7.30;;;5.88;;
17574;SDS011;8906;43.590;1.418;2023-09-18T03:42:37;6.55;;;5.63;;
17574;SDS011;8906;43.590;1.418;2023-09-18T03:45:05;7.03;;;6.10;;
17574;SDS011;8906;43.590;1.418;2023-09-18T03:47:33;8.73;;;5.28;;
17574;SDS011;8906;43.590;1.418;2023-09-18T03:50:00;5.03;;;3.92;;
17574;SDS011;8906;43.590;1.418;2023-09-18T03:52:27;6.80;;;3.83;;
17574;SDS011;8906;43.590;1.418;2023-09-18T03:54:54;11.82;;;4.30;;
17574;SDS011;8906;43.590;1.418;2023-09-18T03:57:21;5.28;;;4.25;;
17574;SDS011;8906;43.590;1.418;2023-09-18T03:59:49;5.40;;;3.65;;
17574;SDS011;8906;43.590;1.418;2023-09-18T04:02:16;4.95;;;3.50;;
17574;SDS011;8906;43.590;1.418;2023-09-18T04:04:43;13.10;;;4.28;;
17574;SDS011;8906;43.590;1.418;2023-09-18T04:07:10;8.32;;;3.90;;
17574;SDS011;8906;43.590;1.418;2023-09-18T04:09:41;4.93;;;3.10;;
17574;SDS011;8906;43.590;1.418;2023-09-18T04:12:08;5.35;;;3.58;;
17574;SDS011;8906;43.590;1.418;2023-09-18T04:14:35;6.20;;;3.75;;
17574;SDS011;8906;43.590;1.418;2023-09-18T04:17:04;6.30;;;3.58;;
17574;SDS011;8906;43.590;1.418;2023-09-18T04:19:30;3.70;;;3.40;;
17574;SDS011;8906;43.590;1.418;2023-09-18T04:21:57;10.00;;;3.97;;
17574;SDS011;8906;43.590;1.418;2023-09-18T04:24:25;7.10;;;3.60;;
17574;SDS011;8906;43.590;1.418;2023-09-18T04:26:52;13.13;;;4.53;;
17574;SDS011;8906;43.590;1.418;2023-09-18T04:29:19;6.28;;;3.03;;
17574;SDS011;8906;43.590;1.418;2023-09-18T04:31:46;6.32;;;3.75;;
17574;SDS011;8906;43.590;1.418;2023-09-18T04:34:15;5.43;;;4.35;;
17574;SDS011;8906;43.590;1.418;2023-09-18T04:36:42;5.65;;;3.75;;
17574;SDS011;8906;43.590;1.418;2023-09-18T04:39:09;12.55;;;3.58;;
17574;SDS011;8906;43.590;1.418;2023-09-18T04:41:36;7.22;;;3.78;;
17574;SDS011;8906;43.590;1.418;2023-09-18T04:44:04;7.03;;;3.03;;
17574;SDS011;8906;43.590;1.418;2023-09-18T04:46:32;6.28;;;3.17;;
17574;SDS011;8906;43.590;1.418;2023-09-18T04:48:59;6.30;;;3.65;;
17574;SDS011;8906;43.590;1.418;2023-09-18T04:51:30;5.88;;;3.33;;
17574;SDS011;8906;43.590;1.418;2023-09-18T04:53:57;5.97;;;4.28;;
17574;SDS011;8906;43.590;1.418;2023-09-18T04:56:24;6.82;;;3.63;;
17574;SDS011;8906;43.590;1.418;2023-09-18T04:58:52;6.60;;;4.07;;
17574;SDS011;8906;43.590;1.418;2023-09-18T05:01:19;6.22;;;3.60;;
17574;SDS011;8906;43.590;1.418;2023-09-18T05:03:45;9.27;;;4.72;;
17574;SDS011;8906;43.590;1.418;2023-09-18T05:06:13;9.45;;;5.38;;
17574;SDS011;8906;43.590;1.418;2023-09-18T05:08:43;11.00;;;4.43;;
17574;SDS011;8906;43.590;1.418;2023-09-18T05:11:10;7.18;;;4.40;;
17574;SDS011;8906;43.590;1.418;2023-09-18T05:13:37;9.20;;;4.47;;
17574;SDS011;8906;43.590;1.418;2023-09-18T05:16:04;5.03;;;3.55;;
17574;SDS011;8906;43.590;1.418;2023-09-18T05:18:31;4.68;;;3.17;;
17574;SDS011;8906;43.590;1.418;2023-09-18T05:20:57;5.90;;;4.03;;
17574;SDS011;8906;43.590;1.418;2023-09-18T05:23:24;7.95;;;3.97;;
17574;SDS011;8906;43.590;1.418;2023-09-18T05:25:53;7.35;;;4.15;;
17574;SDS011;8906;43.590;1.418;2023-09-18T05:28:20;10.10;;;3.97;;
17574;SDS011;8906;43.590;1.418;2023-09-18T05:30:47;6.35;;;4.45;;
17574;SDS011;8906;43.590;1.418;2023-09-18T05:33:14;6.18;;;3.53;;
17574;SDS011;8906;43.590;1.418;2023-09-18T05:35:41;7.80;;;3.90;;
17574;SDS011;8906;43.590;1.418;2023-09-18T05:38:09;6.03;;;3.65;;
17574;SDS011;8906;43.590;1.418;2023-09-18T05:40:38;5.55;;;3.72;;
17574;SDS011;8906;43.590;1.418;2023-09-18T05:43:06;4.85;;;3.45;;
17574;SDS011;8906;43.590;1.418;2023-09-18T05:45:33;11.68;;;4.07;;
17574;SDS011;8906;43.590;1.418;2023-09-18T05:48:00;6.85;;;4.13;;
17574;SDS011;8906;43.590;1.418;2023-09-18T05:50:29;8.15;;;4.05;;
17574;SDS011;8906;43.590;1.418;2023-09-18T05:52:56;7.10;;;4.13;;
17574;SDS011;8906;43.590;1.418;2023-09-18T05:55:25;9.07;;;5.00;;
17574;SDS011;8906;43.590;1.418;2023-09-18T05:57:52;8.32;;;4.57;;
17574;SDS011;8906;43.590;1.418;2023-09-18T06:00:21;6.43;;;4.75;;
17574;SDS011;8906;43.590;1.418;2023-09-18T06:02:48;9.32;;;5.20;;
17574;SDS011;8906;43.590;1.418;2023-09-18T06:05:16;4.97;;;4.30;;
17574;SDS011;8906;43.590;1.418;2023-09-18T06:07:46;10.23;;;5.22;;
17574;SDS011;8906;43.590;1.418;2023-09-18T06:10:13;11.82;;;7.57;;
17574;SDS011;8906;43.590;1.418;2023-09-18T06:12:41;25.70;;;9.07;;
17574;SDS011;8906;43.590;1.418;2023-09-18T06:15:09;27.83;;;9.10;;
17574;SDS011;8906;43.590;1.418;2023-09-18T06:17:38;16.73;;;9.00;;
17574;SDS011;8906;43.590;1.418;2023-09-18T06:20:07;17.77;;;9.60;;
17574;SDS011;8906;43.590;1.418;2023-09-18T06:22:36;16.33;;;9.55;;
17574;SDS011;8906;43.590;1.418;2023-09-18T06:25:03;26.02;;;10.05;;
17574;SDS011;8906;43.590;1.418;2023-09-18T06:27:31;20.60;;;10.35;;
17574;SDS011;8906;43.590;1.418;2023-09-18T06:30:01;22.25;;;11.05;;
17574;SDS011;8906;43.590;1.418;2023-09-18T06:32:28;31.30;;;12.05;;
17574;SDS011;8906;43.590;1.418;2023-09-18T06:34:56;24.35;;;12.13;;
17574;SDS011;8906;43.590;1.418;2023-09-18T06:37:23;27.75;;;12.70;;
17574;SDS011;8906;43.590;1.418;2023-09-18T06:39:50;22.95;;;10.93;;
17574;SDS011;8906;43.590;1.418;2023-09-18T06:42:17;19.17;;;11.38;;
17574;SDS011;8906;43.590;1.418;2023-09-18T06:44:44;21.48;;;10.13;;
17574;SDS011;8906;43.590;1.418;2023-09-18T06:47:11;36.58;;;11.85;;
17574;SDS011;8906;43.590;1.418;2023-09-18T06:49:39;33.75;;;12.32;;
17574;SDS011;8906;43.590;1.418;2023-09-18T06:52:08;28.40;;;11.07;;
17574;SDS011;8906;43.590;1.418;2023-09-18T06:54:35;31.05;;;11.50;;
17574;SDS011;8906;43.590;1.418;2023-09-18T06:57:02;27.27;;;11.38;;
17574;SDS011;8906;43.590;1.418;2023-09-18T06:59:30;22.20;;;11.45;;
17574;SDS011;8906;43.590;1.418;2023-09-18T07:01:58;32.72;;;11.88;;
17574;SDS011;8906;43.590;1.418;2023-09-18T07:04:26;23.67;;;10.90;;
17574;SDS011;8906;43.590;1.418;2023-09-18T07:06:53;24.20;;;10.90;;
17574;SDS011;8906;43.590;1.418;2023-09-18T07:09:22;25.45;;;12.18;;
17574;SDS011;8906;43.590;1.418;2023-09-18T07:11:50;22.45;;;11.35;;
17574;SDS011;8906;43.590;1.418;2023-09-18T07:14:18;19.52;;;11.73;;
17574;SDS011;8906;43.590;1.418;2023-09-18T07:16:45;28.20;;;12.80;;
17574;SDS011;8906;43.590;1.418;2023-09-18T07:19:12;24.48;;;13.43;;
17574;SDS011;8906;43.590;1.418;2023-09-18T07:21:42;20.05;;;12.52;;
17574;SDS011;8906;43.590;1.418;2023-09-18T07:24:09;24.10;;;13.27;;
17574;SDS011;8906;43.590;1.418;2023-09-18T07:26:43;21.85;;;13.13;;
17574;SDS011;8906;43.590;1.418;2023-09-18T07:29:11;24.58;;;12.57;;
17574;SDS011;8906;43.590;1.418;2023-09-18T07:31:40;29.02;;;12.90;;
17574;SDS011;8906;43.590;1.418;2023-09-18T07:34:07;24.52;;;11.23;;
17574;SDS011;8906;43.590;1.418;2023-09-18T07:36:34;23.23;;;12.45;;
17574;SDS011;8906;43.590;1.418;2023-09-18T07:39:01;20.73;;;13.07;;
17574;SDS011;8906;43.590;1.418;2023-09-18T07:41:29;26.95;;;13.07;;
17574;SDS011;8906;43.590;1.418;2023-09-18T07:43:57;23.50;;;13.90;;
17574;SDS011;8906;43.590;1.418;2023-09-18T07:46:24;29.52;;;13.52;;
17574;SDS011;8906;43.590;1.418;2023-09-18T07:48:51;23.77;;;12.60;;
17574;SDS011;8906;43.590;1.418;2023-09-18T07:51:19;28.10;;;13.57;;
17574;SDS011;8906;43.590;1.418;2023-09-18T07:53:45;22.77;;;11.73;;
17574;SDS011;8906;43.590;1.418;2023-09-18T07:56:13;23.70;;;12.02;;
17574;SDS011;8906;43.590;1.418;2023-09-18T07:58:40;20.70;;;14.50;;
17574;SDS011;8906;43.590;1.418;2023-09-18T08:01:08;15.75;;;12.82;;
17574;SDS011;8906;43.590;1.418;2023-09-18T08:03:35;17.23;;;12.65;;
17574;SDS011;8906;43.590;1.418;2023-09-18T08:06:02;16.30;;;11.05;;
17574;SDS011;8906;43.590;1.418;2023-09-18T08:08:31;14.85;;;12.52;;
17574;SDS011;8906;43.590;1.418;2023-09-18T08:11:00;18.13;;;11.85;;
17574;SDS011;8906;43.590;1.418;2023-09-18T08:13:33;18.45;;;10.70;;
17574;SDS011;8906;43.590;1.418;2023-09-18T08:16:00;20.05;;;10.60;;
17574;SDS011;8906;43.590;1.418;2023-09-18T08:18:28;19.17;;;11.90;;
17574;SDS011;8906;43.590;1.418;2023-09-18T08:20:55;14.35;;;11.05;;
17574;SDS011;8906;43.590;1.418;2023-09-18T08:23:23;17.33;;;11.27;;
17574;SDS011;8906;43.590;1.418;2023-09-18T08:25:50;14.32;;;9.93;;
17574;SDS011;8906;43.590;1.418;2023-09-18T08:28:20;13.40;;;11.02;;
17574;SDS011;8906;43.590;1.418;2023-09-18T08:30:47;14.43;;;10.13;;
17574;SDS011;8906;43.590;1.418;2023-09-18T08:33:14;12.98;;;11.60;;
17574;SDS011;8906;43.590;1.418;2023-09-18T08:35:42;14.35;;;11.10;;
17574;SDS011;8906;43.590;1.418;2023-09-18T08:38:09;14.85;;;10.35;;
17574;SDS011;8906;43.590;1.418;2023-09-18T08:40:36;17.67;;;11.55;;
17574;SDS011;8906;43.590;1.418;2023-09-18T08:43:03;13.68;;;10.35;;
17574;SDS011;8906;43.590;1.418;2023-09-18T08:45:33;15.02;;;11.02;;
17574;SDS011;8906;43.590;1.418;2023-09-18T08:48:04;14.63;;;10.63;;
17574;SDS011;8906;43.590;1.418;2023-09-18T08:50:32;16.35;;;11.30;;
17574;SDS011;8906;43.590;1.418;2023-09-18T08:53:02;17.67;;;12.35;;
17574;SDS011;8906;43.590;1.418;2023-09-18T08:55:29;15.23;;;11.60;;
17574;SDS011;8906;43.590;1.418;2023-09-18T08:57:57;15.55;;;12.23;;
17574;SDS011;8906;43.590;1.418;2023-09-18T09:00:25;17.95;;;12.82;;
17574;SDS011;8906;43.590;1.418;2023-09-18T09:02:52;13.77;;;8.90;;
17574;SDS011;8906;43.590;1.418;2023-09-18T09:05:20;16.63;;;10.88;;
17574;SDS011;8906;43.590;1.418;2023-09-18T09:07:49;17.63;;;10.93;;
17574;SDS011;8906;43.590;1.418;2023-09-18T09:10:18;18.25;;;10.00;;
17574;SDS011;8906;43.590;1.418;2023-09-18T09:12:48;12.98;;;9.90;;
17574;SDS011;8906;43.590;1.418;2023-09-18T09:15:17;14.98;;;9.82;;
17574;SDS011;8906;43.590;1.418;2023-09-18T09:17:44;16.50;;;9.70;;
17574;SDS011;8906;43.590;1.418;2023-09-18T09:20:12;16.35;;;10.73;;
17574;SDS011;8906;43.590;1.418;2023-09-18T09:22:41;26.02;;;11.70;;
17574;SDS011;8906;43.590;1.418;2023-09-18T09:25:25;16.92;;;11.10;;
17574;SDS011;8906;43.590;1.418;2023-09-18T09:27:56;13.88;;;9.95;;
17574;SDS011;8906;43.590;1.418;2023-09-18T09:30:24;20.35;;;11.32;;
17574;SDS011;8906;43.590;1.418;2023-09-18T09:32:52;13.38;;;9.90;;
17574;SDS011;8906;43.590;1.418;2023-09-18T09:35:21;14.00;;;10.30;;
17574;SDS011;8906;43.590;1.418;2023-09-18T09:37:49;19.05;;;10.27;;
17574;SDS011;8906;43.590;1.418;2023-09-18T09:40:17;13.30;;;9.68;;
17574;SDS011;8906;43.590;1.418;2023-09-18T09:42:47;18.60;;;9.77;;
17574;SDS011;8906;43.590;1.418;2023-09-18T09:45:17;19.42;;;9.45;;
17574;SDS011;8906;43.590;1.418;2023-09-18T09:47:44;17.88;;;9.32;;
17574;SDS011;8906;43.590;1.418;2023-09-18T09:50:12;17.02;;;10.18;;
17574;SDS011;8906;43.590;1.418;2023-09-18T09:52:41;11.95;;;8.40;;
17574;SDS011;8906;43.590;1.418;2023-09-18T09:55:19;11.40;;;8.20;;
17574;SDS011;8906;43.590;1.418;2023-09-18T09:57:50;11.15;;;7.93;;
17574;SDS011;8906;43.590;1.418;2023-09-18T10:00:18;9.57;;;6.35;;
17574;SDS011;8906;43.590;1.418;2023-09-18T10:02:53;9.88;;;6.30;;
17574;SDS011;8906;43.590;1.418;2023-09-18T10:05:24;9.98;;;6.35;;
17574;SDS011;8906;43.590;1.418;2023-09-18T10:07:53;10.10;;;6.22;;
17574;SDS011;8906;43.590;1.418;2023-09-18T10:10:23;9.35;;;6.43;;
17574;SDS011;8906;43.590;1.418;2023-09-18T10:12:53;8.60;;;6.03;;
17574;SDS011;8906;43.590;1.418;2023-09-18T10:15:22;10.50;;;5.65;;
17574;SDS011;8906;43.590;1.418;2023-09-18T10:17:51;6.38;;;5.40;;
17574;SDS011;8906;43.590;1.418;2023-09-18T10:20:24;9.00;;;6.72;;
17574;SDS011;8906;43.590;1.418;2023-09-18T10:22:54;6.97;;;5.85;;
17574;SDS011;8906;43.590;1.418;2023-09-18T10:25:26;10.52;;;5.00;;
17574;SDS011;8906;43.590;1.418;2023-09-18T10:27:57;8.52;;;5.65;;
17574;SDS011;8906;43.590;1.418;2023-09-18T10:30:28;8.15;;;6.30;;
17574;SDS011;8906;43.590;1.418;2023-09-18T10:32:57;4.75;;;4.30;;
17574;SDS011;8906;43.590;1.418;2023-09-18T10:35:26;4.95;;;4.18;;
17574;SDS011;8906;43.590;1.418;2023-09-18T10:37:54;6.63;;;5.38;;
17574;SDS011;8906;43.590;1.418;2023-09-18T10:40:21;8.52;;;4.82;;
17574;SDS011;8906;43.590;1.418;2023-09-18T10:42:51;5.78;;;3.35;;
17574;SDS011;8906;43.590;1.418;2023-09-18T10:45:21;7.53;;;4.72;;
17574;SDS011;8906;43.590;1.418;2023-09-18T10:47:48;9.25;;;4.65;;
17574;SDS011;8906;43.590;1.418;2023-09-18T10:50:22;4.80;;;4.03;;
17574;SDS011;8906;43.590;1.418;2023-09-18T10:52:50;10.35;;;4.68;;
17574;SDS011;8906;43.590;1.418;2023-09-18T10:55:17;6.93;;;4.15;;
17574;SDS011;8906;43.590;1.418;2023-09-18T10:57:50;7.32;;;4.40;;
17574;SDS011;8906;43.590;1.418;2023-09-18T11:00:18;5.97;;;4.18;;
17574;SDS011;8906;43.590;1.418;2023-09-18T11:02:49;6.97;;;3.75;;
17574;SDS011;8906;43.590;1.418;2023-09-18T11:05:26;6.30;;;4.20;;
17574;SDS011;8906;43.590;1.418;2023-09-18T11:10:55;9.02;;;4.68;;
17574;SDS011;8906;43.590;1.418;2023-09-18T11:13:29;8.40;;;5.00;;
17574;SDS011;8906;43.590;1.418;2023-09-18T11:16:00;4.57;;;4.15;;
17574;SDS011;8906;43.590;1.418;2023-09-18T11:18:41;4.03;;;3.60;;
17574;SDS011;8906;43.590;1.418;2023-09-18T11:21:08;8.50;;;4.45;;
17574;SDS011;8906;43.590;1.418;2023-09-18T11:23:36;6.65;;;4.22;;
17574;SDS011;8906;43.590;1.418;2023-09-18T11:26:07;5.00;;;3.85;;
17574;SDS011;8906;43.590;1.418;2023-09-18T11:28:35;4.45;;;3.20;;
17574;SDS011;8906;43.590;1.418;2023-09-18T11:31:03;6.47;;;4.15;;
17574;SDS011;8906;43.590;1.418;2023-09-18T11:33:31;5.22;;;3.38;;
17574;SDS011;8906;43.590;1.418;2023-09-18T11:36:05;5.50;;;3.60;;
17574;SDS011;8906;43.590;1.418;2023-09-18T11:38:33;3.88;;;2.88;;
17574;SDS011;8906;43.590;1.418;2023-09-18T11:41:14;4.45;;;2.63;;
17574;SDS011;8906;43.590;1.418;2023-09-18T11:43:46;3.25;;;2.95;;
17574;SDS011;8906;43.590;1.418;2023-09-18T11:46:14;5.50;;;3.88;;
17574;SDS011;8906;43.590;1.418;2023-09-18T11:48:47;6.10;;;2.97;;
17574;SDS011;8906;43.590;1.418;2023-09-18T11:51:21;5.95;;;3.72;;
17574;SDS011;8906;43.590;1.418;2023-09-18T11:53:49;3.92;;;3.38;;
17574;SDS011;8906;43.590;1.418;2023-09-18T11:56:21;4.13;;;3.42;;
17574;SDS011;8906;43.590;1.418;2023-09-18T11:58:48;3.47;;;3.10;;
17574;SDS011;8906;43.590;1.418;2023-09-18T12:01:17;3.63;;;3.30;;
17574;SDS011;8906;43.590;1.418;2023-09-18T12:03:44;4.68;;;3.55;;
17574;SDS011;8906;43.590;1.418;2023-09-18T12:06:12;6.65;;;3.22;;
17574;SDS011;8906;43.590;1.418;2023-09-18T12:08:42;4.60;;;3.90;;
17574;SDS011;8906;43.590;1.418;2023-09-18T12:11:09;5.78;;;3.65;;
17574;SDS011;8906;43.590;1.418;2023-09-18T12:13:41;6.45;;;3.30;;
17574;SDS011;8906;43.590;1.418;2023-09-18T12:16:08;5.10;;;4.05;;
17574;SDS011;8906;43.590;1.418;2023-09-18T12:18:35;5.07;;;3.30;;
17574;SDS011;8906;43.590;1.418;2023-09-18T12:21:05;4.07;;;3.72;;
17574;SDS011;8906;43.590;1.418;2023-09-18T12:23:39;7.20;;;3.35;;
17574;SDS011;8906;43.590;1.418;2023-09-18T12:26:10;4.00;;;3.60;;
17574;SDS011;8906;43.590;1.418;2023-09-18T12:28:38;3.72;;;3.15;;
17574;SDS011;8906;43.590;1.418;2023-09-18T12:31:06;4.13;;;3.33;;
17574;SDS011;8906;43.590;1.418;2023-09-18T12:33:36;6.28;;;3.55;;
17574;SDS011;8906;43.590;1.418;2023-09-18T12:36:04;5.47;;;3.25;;
17574;SDS011;8906;43.590;1.418;2023-09-18T12:38:32;6.72;;;3.60;;
17574;SDS011;8906;43.590;1.418;2023-09-18T12:40:59;4.80;;;3.50;;
17574;SDS011;8906;43.590;1.418;2023-09-18T12:43:34;5.28;;;4.25;;
17574;SDS011;8906;43.590;1.418;2023-09-18T12:46:04;4.43;;;3.30;;
17574;SDS011;8906;43.590;1.418;2023-09-18T12:48:31;4.82;;;3.53;;
17574;SDS011;8906;43.590;1.418;2023-09-18T12:51:02;5.78;;;3.53;;
17574;SDS011;8906;43.590;1.418;2023-09-18T12:53:30;4.40;;;3.55;;
17574;SDS011;8906;43.590;1.418;2023-09-18T12:56:06;6.10;;;3.75;;
17574;SDS011;8906;43.590;1.418;2023-09-18T12:58:36;6.15;;;3.92;;
17574;SDS011;8906;43.590;1.418;2023-09-18T13:01:04;10.93;;;4.20;;
17574;SDS011;8906;43.590;1.418;2023-09-18T13:03:35;8.80;;;4.43;;
17574;SDS011;8906;43.590;1.418;2023-09-18T13:06:08;6.40;;;4.18;;
17574;SDS011;8906;43.590;1.418;2023-09-18T13:08:36;8.00;;;3.20;;
17574;SDS011;8906;43.590;1.418;2023-09-18T13:11:03;3.92;;;3.47;;
17574;SDS011;8906;43.590;1.418;2023-09-18T13:13:31;4.78;;;3.50;;
17574;SDS011;8906;43.590;1.418;2023-09-18T13:16:00;5.75;;;3.80;;
17574;SDS011;8906;43.590;1.418;2023-09-18T13:18:31;4.07;;;3.72;;
17574;SDS011;8906;43.590;1.418;2023-09-18T13:20:58;3.67;;;3.38;;
17574;SDS011;8906;43.590;1.418;2023-09-18T13:23:28;5.60;;;3.47;;
17574;SDS011;8906;43.590;1.418;2023-09-18T13:25:59;4.90;;;3.25;;
17574;SDS011;8906;43.590;1.418;2023-09-18T13:28:29;4.05;;;3.72;;
17574;SDS011;8906;43.590;1.418;2023-09-18T13:30:58;3.60;;;2.80;;
17574;SDS011;8906;43.590;1.418;2023-09-18T13:33:30;4.10;;;2.40;;
17574;SDS011;8906;43.590;1.418;2023-09-18T13:35:57;2.92;;;2.15;;
17574;SDS011;8906;43.590;1.418;2023-09-18T13:38:25;3.15;;;2.78;;
17574;SDS011;8906;43.590;1.418;2023-09-18T13:40:52;2.28;;;1.98;;
17574;SDS011;8906;43.590;1.418;2023-09-18T13:43:20;4.53;;;2.15;;
17574;SDS011;8906;43.590;1.418;2023-09-18T13:45:48;2.35;;;2.08;;
17574;SDS011;8906;43.590;1.418;2023-09-18T13:48:18;2.55;;;2.05;;
17574;SDS011;8906;43.590;1.418;2023-09-18T13:50:45;2.28;;;2.13;;
17574;SDS011;8906;43.590;1.418;2023-09-18T13:53:13;5.00;;;2.25;;
17574;SDS011;8906;43.590;1.418;2023-09-18T13:55:40;4.38;;;2.65;;
17574;SDS011;8906;43.590;1.418;2023-09-18T13:58:07;3.35;;;2.60;;
17574;SDS011;8906;43.590;1.418;2023-09-18T14:00:34;2.20;;;2.00;;
17574;SDS011;8906;43.590;1.418;2023-09-18T14:03:01;3.20;;;1.70;;
17574;SDS011;8906;43.590;1.418;2023-09-18T14:05:30;4.95;;;2.20;;
17574;SDS011;8906;43.590;1.418;2023-09-18T14:07:59;3.78;;;2.05;;
17574;SDS011;8906;43.590;1.418;2023-09-18T14:10:26;3.70;;;2.22;;
17574;SDS011;8906;43.590;1.418;2023-09-18T14:12:53;5.00;;;2.10;;
17574;SDS011;8906;43.590;1.418;2023-09-18T14:15:20;4.72;;;2.70;;
17574;SDS011;8906;43.590;1.418;2023-09-18T14:17:47;4.88;;;2.40;;
17574;SDS011;8906;43.590;1.418;2023-09-18T14:20:15;3.30;;;1.77;;
17574;SDS011;8906;43.590;1.418;2023-09-18T14:22:45;4.97;;;2.28;;
17574;SDS011;8906;43.590;1.418;2023-09-18T14:25:14;2.00;;;1.88;;
17574;SDS011;8906;43.590;1.418;2023-09-18T14:27:41;5.43;;;2.10;;
17574;SDS011;8906;43.590;1.418;2023-09-18T14:30:09;2.35;;;1.85;;
17574;SDS011;8906;43.590;1.418;2023-09-18T14:32:37;1.75;;;1.42;;
17574;SDS011;8906;43.590;1.418;2023-09-18T14:35:05;2.08;;;1.67;;
17574;SDS011;8906;43.590;1.418;2023-09-18T14:37:33;2.45;;;1.33;;
17574;SDS011;8906;43.590;1.418;2023-09-18T14:40:01;1.15;;;1.05;;
17574;SDS011;8906;43.590;1.418;2023-09-18T14:42:28;2.00;;;1.63;;
17574;SDS011;8906;43.590;1.418;2023-09-18T14:44:55;2.03;;;1.23;;
17574;SDS011;8906;43.590;1.418;2023-09-18T14:47:22;1.73;;;1.35;;
17574;SDS011;8906;43.590;1.418;2023-09-18T14:49:49;1.23;;;1.05;;
17574;SDS011;8906;43.590;1.418;2023-09-18T14:52:16;1.20;;;0.70;;
17574;SDS011;8906;43.590;1.418;2023-09-18T14:54:43;1.60;;;1.38;;
17574;SDS011;8906;43.590;1.418;2023-09-18T14:57:12;1.30;;;1.10;;
17574;SDS011;8906;43.590;1.418;2023-09-18T14:59:39;1.33;;;1.23;;
17574;SDS011;8906;43.590;1.418;2023-09-18T15:02:07;3.05;;;1.10;;